createdAt,value
2018-05-24T00:00:44.504Z,99.99
2018-05-24T00:02:37.233Z,99.99
2018-05-24T00:03:37.151Z,99.99
2018-05-24T00:05:29.987Z,99.99
2018-05-24T00:06:29.903Z,99.99
2018-05-24T00:08:22.791Z,99.99
2018-05-24T00:09:22.541Z,99.99
2018-05-24T00:11:15.433Z,99.99
2018-05-24T00:12:15.282Z,99.99
2018-05-24T00:14:08.031Z,99.99
2018-05-24T00:15:07.931Z,99.99
2018-05-24T00:17:00.803Z,99.99
2018-05-24T00:18:00.728Z,99.99
2018-05-24T00:19:53.540Z,99.99
2018-05-24T00:20:53.433Z,99.99
2018-05-24T00:22:46.324Z,99.99
2018-05-24T00:23:46.184Z,99.99
2018-05-24T00:25:39.042Z,99.99
2018-05-24T00:26:38.939Z,99.99
2018-05-24T00:28:31.777Z,99.99
2018-05-24T00:29:31.707Z,99.99
2018-05-24T00:31:24.536Z,99.99
2018-05-24T00:32:24.439Z,99.99
2018-05-24T00:34:17.282Z,99.99
2018-05-24T00:35:17.177Z,99.99
2018-05-24T00:37:10.021Z,99.99
2018-05-24T00:38:09.925Z,99.99
2018-05-24T00:40:02.765Z,99.99
2018-05-24T00:41:02.675Z,99.99
2018-05-24T00:42:55.649Z,99.99
2018-05-24T00:43:55.424Z,99.99
2018-05-24T00:45:48.274Z,99.99
2018-05-24T00:46:48.186Z,99.99
2018-05-24T00:48:41.030Z,99.99
2018-05-24T00:49:40.924Z,99.99
2018-05-24T00:51:33.791Z,99.99
2018-05-24T00:52:33.680Z,99.99
2018-05-24T00:54:26.965Z,99.99
2018-05-24T00:55:26.849Z,99.99
2018-05-24T00:57:19.729Z,99.99
2018-05-24T00:58:19.590Z,99.99
2018-05-24T01:00:12.424Z,99.99
2018-05-24T01:01:12.331Z,99.99
2018-05-24T01:03:05.193Z,99.99
2018-05-24T01:04:05.128Z,99.99
2018-05-24T01:05:57.844Z,99.99
2018-05-24T01:06:57.729Z,99.99
2018-05-24T01:08:50.576Z,99.99
2018-05-24T01:09:50.476Z,99.99
2018-05-24T01:11:43.423Z,99.99
2018-05-24T01:12:43.240Z,99.99
2018-05-24T01:14:36.093Z,99.99
2018-05-24T01:15:35.990Z,99.99
2018-05-24T01:17:28.844Z,99.99
2018-05-24T01:18:28.823Z,99.99
2018-05-24T01:20:21.997Z,99.99
2018-05-24T01:21:21.907Z,99.99
2018-05-24T01:23:14.725Z,99.99
2018-05-24T01:24:14.668Z,99.99
2018-05-24T01:26:07.916Z,99.99
2018-05-24T01:27:07.805Z,99.99
2018-05-24T01:29:00.687Z,99.99
2018-05-24T01:30:00.546Z,99.99
2018-05-24T01:31:53.822Z,99.99
2018-05-24T01:32:53.703Z,99.99
2018-05-24T01:34:46.568Z,99.99
2018-05-24T01:35:46.469Z,99.99
2018-05-24T01:37:39.288Z,99.99
2018-05-24T01:38:39.205Z,99.99
2018-05-24T01:40:32.054Z,99.99
2018-05-24T01:41:31.956Z,99.99
2018-05-24T01:43:24.695Z,99.99
2018-05-24T01:44:24.600Z,99.99
2018-05-24T01:46:17.451Z,99.99
2018-05-24T01:47:17.343Z,99.99
2018-05-24T01:49:10.201Z,99.99
2018-05-24T01:50:10.098Z,99.99
2018-05-24T01:52:02.947Z,99.99
2018-05-24T01:53:02.872Z,99.99
2018-05-24T01:54:56.199Z,99.99
2018-05-24T01:55:55.497Z,99.99
2018-05-24T01:57:48.377Z,99.99
2018-05-24T01:58:48.292Z,99.99
2018-05-24T02:00:41.004Z,99.99
2018-05-24T02:01:40.895Z,99.99
2018-05-24T02:03:33.741Z,99.99
2018-05-24T02:04:33.650Z,99.99
2018-05-24T02:06:26.476Z,99.99
2018-05-24T02:07:26.407Z,99.99
2018-05-24T02:09:19.279Z,99.99
2018-05-24T02:10:19.152Z,99.99
2018-05-24T02:12:11.998Z,99.99
2018-05-24T02:13:11.897Z,99.99
2018-05-24T02:15:04.736Z,99.99
2018-05-24T02:16:04.675Z,99.99
2018-05-24T02:17:57.509Z,99.99
2018-05-24T02:18:57.395Z,99.99
2018-05-24T02:20:50.235Z,99.99
2018-05-24T02:21:50.155Z,99.99
2018-05-24T02:23:42.925Z,99.99
2018-05-24T02:24:42.856Z,99.99
2018-05-24T02:26:35.635Z,99.99
2018-05-24T02:27:35.593Z,99.99
2018-05-24T02:29:28.405Z,99.99
2018-05-24T02:30:28.315Z,99.99
2018-05-24T02:32:21.135Z,99.99
2018-05-24T02:33:21.058Z,99.99
2018-05-24T02:35:14.002Z,99.99
2018-05-24T02:36:13.888Z,99.99
2018-05-24T02:38:06.737Z,99.99
2018-05-24T02:39:06.644Z,99.99
2018-05-24T02:40:59.490Z,99.99
2018-05-24T02:41:59.400Z,99.99
2018-05-24T02:43:52.122Z,99.99
2018-05-24T02:44:52.035Z,99.99
2018-05-24T02:46:44.891Z,99.99
2018-05-24T02:47:44.781Z,99.99
2018-05-24T02:49:37.555Z,99.99
2018-05-24T02:50:37.429Z,99.99
2018-05-24T02:52:30.280Z,99.99
2018-05-24T02:53:30.202Z,99.99
2018-05-24T02:55:22.941Z,99.99
2018-05-24T02:56:22.851Z,99.99
2018-05-24T02:58:16.103Z,99.99
2018-05-24T02:59:15.995Z,99.99
2018-05-24T03:01:08.754Z,99.99
2018-05-24T03:02:08.628Z,99.99
2018-05-24T03:04:01.372Z,99.99
2018-05-24T03:05:01.285Z,99.99
2018-05-24T03:06:54.150Z,99.99
2018-05-24T03:07:54.041Z,99.99
2018-05-24T03:09:46.863Z,99.99
2018-05-24T03:10:46.840Z,99.99
2018-05-24T03:12:39.658Z,99.99
2018-05-24T03:13:39.436Z,99.99
2018-05-24T03:15:32.194Z,99.99
2018-05-24T03:16:32.076Z,99.99
2018-05-24T03:18:24.946Z,99.99
2018-05-24T03:19:24.859Z,99.99
2018-05-24T03:21:18.112Z,99.99
2018-05-24T03:22:17.982Z,99.99
2018-05-24T03:24:10.767Z,99.99
2018-05-24T03:25:10.634Z,99.99
2018-05-24T03:27:03.518Z,99.99
2018-05-24T03:28:03.380Z,99.99
2018-05-24T03:29:56.232Z,99.99
2018-05-24T03:30:56.169Z,99.99
2018-05-24T03:32:48.975Z,99.99
2018-05-24T03:33:48.900Z,99.99
2018-05-24T03:35:41.620Z,99.99
2018-05-24T03:36:41.521Z,99.99
2018-05-24T03:38:34.380Z,99.99
2018-05-24T03:39:34.272Z,99.99
2018-05-24T03:41:27.030Z,99.99
2018-05-24T03:42:26.941Z,99.99
2018-05-24T03:44:19.683Z,99.99
2018-05-24T03:45:19.567Z,99.99
2018-05-24T03:47:12.351Z,99.99
2018-05-24T03:48:12.248Z,99.99
2018-05-24T03:50:05.007Z,99.99
2018-05-24T03:51:04.861Z,99.99
2018-05-24T03:52:57.609Z,99.99
2018-05-24T03:53:57.511Z,99.99
2018-05-24T03:55:50.375Z,99.99
2018-05-24T03:56:50.280Z,99.99
2018-05-24T03:58:43.068Z,99.99
2018-05-24T03:59:42.908Z,99.99
2018-05-24T04:01:35.652Z,99.99
2018-05-24T04:02:35.552Z,99.99
2018-05-24T04:04:28.409Z,99.99
2018-05-24T04:05:28.308Z,99.99
2018-05-24T04:07:21.051Z,99.99
2018-05-24T04:08:20.967Z,99.99
2018-05-24T04:10:13.699Z,99.99
2018-05-24T04:11:13.608Z,99.99
2018-05-24T04:13:06.501Z,99.99
2018-05-24T04:14:06.361Z,99.99
2018-05-24T04:15:59.286Z,99.99
2018-05-24T04:16:59.105Z,99.99
2018-05-24T04:18:52.006Z,99.99
2018-05-24T04:19:51.850Z,99.99
2018-05-24T04:21:44.896Z,99.99
2018-05-24T04:22:44.602Z,99.99
2018-05-24T04:24:37.349Z,99.99
2018-05-24T04:25:37.256Z,99.99
2018-05-24T04:27:30.106Z,99.99
2018-05-24T04:28:30.013Z,99.99
2018-05-24T04:30:22.891Z,99.99
2018-05-24T04:31:22.763Z,99.99
2018-05-24T04:33:15.585Z,99.99
2018-05-24T04:34:15.485Z,99.99
2018-05-24T04:36:08.352Z,99.99
2018-05-24T04:37:08.262Z,99.99
2018-05-24T04:39:01.091Z,99.99
2018-05-24T04:40:00.996Z,99.99
2018-05-24T04:41:53.783Z,99.99
2018-05-24T04:42:53.637Z,99.99
2018-05-24T04:44:46.502Z,99.99
2018-05-24T04:45:46.286Z,99.99
2018-05-24T04:47:39.137Z,99.99
2018-05-24T04:48:39.037Z,99.99
2018-05-24T04:50:31.887Z,99.99
2018-05-24T04:51:31.685Z,99.99
2018-05-24T04:53:24.438Z,99.99
2018-05-24T04:54:24.333Z,99.99
2018-05-24T04:56:17.072Z,99.99
2018-05-24T04:57:16.975Z,99.99
2018-05-24T04:59:09.773Z,99.99
2018-05-24T05:00:09.624Z,99.67
2018-05-24T05:02:02.367Z,98.43
2018-05-24T05:03:02.345Z,97.66
2018-05-24T05:04:55.145Z,97.56
2018-05-24T05:05:55.025Z,95.94
2018-05-24T05:07:47.921Z,96.99
2018-05-24T05:08:47.770Z,97.47
2018-05-24T05:10:40.613Z,96.89
2018-05-24T05:11:40.532Z,96.42
2018-05-24T05:13:33.423Z,96.99
2018-05-24T05:14:33.304Z,96.51
2018-05-24T05:16:26.119Z,97.18
2018-05-24T05:17:26.020Z,97.37
2018-05-24T05:19:18.881Z,97.33
2018-05-24T05:20:18.770Z,97.42
2018-05-24T05:22:11.606Z,97.23
2018-05-24T05:23:11.553Z,97.42
2018-05-24T05:25:04.274Z,97.42
2018-05-24T05:26:04.181Z,98.00
2018-05-24T05:27:57.026Z,98.19
2018-05-24T05:28:56.910Z,98.95
2018-05-24T05:30:49.684Z,98.24
2018-05-24T05:31:49.573Z,99.10
2018-05-24T05:33:42.398Z,99.48
2018-05-24T05:34:42.328Z,99.58
2018-05-24T05:36:35.168Z,99.48
2018-05-24T05:37:35.076Z,99.10
2018-05-24T05:39:27.805Z,98.81
2018-05-24T05:40:27.725Z,98.52
2018-05-24T05:42:20.578Z,98.71
2018-05-24T05:43:20.461Z,99.67
2018-05-24T05:45:13.196Z,99.67
2018-05-24T05:46:13.119Z,99.29
2018-05-24T05:48:05.958Z,99.10
2018-05-24T05:49:05.843Z,99.77
2018-05-24T05:50:58.608Z,99.99
2018-05-24T05:51:58.581Z,99.96
2018-05-24T05:53:51.358Z,99.99
2018-05-24T05:54:51.248Z,99.99
2018-05-24T05:56:44.099Z,99.99
2018-05-24T05:57:44.009Z,99.99
2018-05-24T05:59:36.796Z,99.99
2018-05-24T06:00:36.652Z,99.99
2018-05-24T06:02:29.404Z,99.99
2018-05-24T06:03:29.316Z,99.99
2018-05-24T06:05:22.135Z,99.99
2018-05-24T06:06:22.044Z,99.99
2018-05-24T06:08:14.808Z,99.99
2018-05-24T06:09:14.697Z,99.99
2018-05-24T06:11:07.553Z,99.99
2018-05-24T06:12:07.439Z,99.99
2018-05-24T06:14:00.203Z,99.99
2018-05-24T06:15:00.107Z,99.99
2018-05-24T06:16:52.949Z,99.99
2018-05-24T06:17:52.923Z,99.99
2018-05-24T06:19:45.702Z,99.99
2018-05-24T06:20:45.583Z,99.99
2018-05-24T06:22:38.434Z,99.99
2018-05-24T06:23:38.340Z,99.99
2018-05-24T06:25:31.195Z,99.99
2018-05-24T06:26:31.090Z,99.99
2018-05-24T06:28:24.014Z,99.99
2018-05-24T06:29:23.854Z,99.99
2018-05-24T06:31:16.710Z,99.99
2018-05-24T06:32:16.592Z,99.99
2018-05-24T06:34:09.400Z,99.99
2018-05-24T06:35:09.232Z,99.99
2018-05-24T06:37:02.072Z,99.99
2018-05-24T06:38:01.987Z,99.99
2018-05-24T06:39:54.842Z,99.99
2018-05-24T06:40:54.634Z,99.99
2018-05-24T06:42:47.377Z,99.99
2018-05-24T06:43:47.276Z,99.99
2018-05-24T06:45:40.131Z,99.99
2018-05-24T06:46:40.047Z,99.99
2018-05-24T06:48:32.786Z,99.99
2018-05-24T06:49:32.711Z,99.99
2018-05-24T06:51:25.540Z,99.99
2018-05-24T06:52:25.424Z,99.99
2018-05-24T06:54:18.298Z,99.99
2018-05-24T06:55:18.187Z,99.99
2018-05-24T06:57:11.033Z,99.99
2018-05-24T06:58:10.924Z,99.99
2018-05-24T07:00:03.762Z,99.99
2018-05-24T07:01:03.684Z,99.99
2018-05-24T07:02:56.434Z,99.99
2018-05-24T07:03:56.320Z,99.99
2018-05-24T07:05:49.181Z,99.99
2018-05-24T07:06:49.073Z,99.99
2018-05-24T07:08:41.917Z,99.99
2018-05-24T07:09:41.815Z,99.99
2018-05-24T07:11:34.686Z,99.99
2018-05-24T07:12:34.696Z,99.99
2018-05-24T07:14:27.320Z,99.99
2018-05-24T07:15:27.217Z,99.99
2018-05-24T07:17:20.076Z,99.99
2018-05-24T07:18:19.984Z,99.99
2018-05-24T07:20:12.863Z,99.99
2018-05-24T07:21:12.717Z,99.99
2018-05-24T07:23:05.596Z,99.99
2018-05-24T07:24:05.544Z,99.99
2018-05-24T07:26:01.857Z,99.99
2018-05-24T07:27:01.267Z,99.99
2018-05-24T07:28:55.089Z,99.99
2018-05-24T07:29:54.960Z,99.99
2018-05-24T07:31:47.811Z,99.99
2018-05-24T07:32:47.709Z,99.99
2018-05-24T07:34:40.476Z,99.99
2018-05-24T07:35:40.358Z,99.99
2018-05-24T07:37:33.232Z,99.99
2018-05-24T07:38:33.108Z,99.99
2018-05-24T07:40:25.956Z,99.99
2018-05-24T07:41:25.951Z,99.99
2018-05-24T07:43:18.695Z,99.99
2018-05-24T07:44:18.602Z,99.99
2018-05-24T07:46:11.560Z,99.99
2018-05-24T07:47:11.461Z,99.99
2018-05-24T07:49:04.352Z,99.99
2018-05-24T07:50:04.212Z,99.99
2018-05-24T07:51:57.008Z,99.99
2018-05-24T07:52:56.872Z,99.99
2018-05-24T07:54:49.723Z,99.99
2018-05-24T07:55:49.628Z,99.99
2018-05-24T07:57:42.401Z,99.99
2018-05-24T07:58:42.256Z,99.99
2018-05-24T08:00:35.152Z,99.99
2018-05-24T08:01:35.078Z,99.99
2018-05-24T08:03:28.013Z,99.99
2018-05-24T08:04:27.749Z,99.99
2018-05-24T08:06:20.614Z,99.99
2018-05-24T08:07:20.496Z,99.99
2018-05-24T08:09:13.346Z,99.99
2018-05-24T08:10:13.261Z,99.99
2018-05-24T08:12:06.097Z,99.99
2018-05-24T08:13:05.998Z,99.99
2018-05-24T08:14:58.837Z,99.99
2018-05-24T08:15:58.742Z,99.99
2018-05-24T08:17:52.123Z,99.99
2018-05-24T08:18:51.411Z,99.99
2018-05-24T08:20:44.272Z,99.99
2018-05-24T08:21:44.137Z,99.99
2018-05-24T08:23:37.009Z,99.99
2018-05-24T08:24:36.912Z,99.99
2018-05-24T08:26:29.755Z,99.99
2018-05-24T08:27:29.642Z,99.99
2018-05-24T08:29:22.496Z,99.99
2018-05-24T08:30:22.412Z,99.99
2018-05-24T08:32:15.247Z,99.99
2018-05-24T08:33:15.171Z,99.99
2018-05-24T08:35:07.996Z,99.99
2018-05-24T08:36:07.885Z,99.99
2018-05-24T08:38:04.325Z,99.99
2018-05-24T08:39:03.574Z,99.99
2018-05-24T08:40:58.164Z,99.99
2018-05-24T08:41:57.997Z,99.99
2018-05-24T08:43:50.855Z,99.99
2018-05-24T08:44:50.752Z,99.99
2018-05-24T08:46:43.494Z,99.99
2018-05-24T08:47:43.403Z,99.99
2018-05-24T08:49:36.248Z,99.99
2018-05-24T08:50:36.222Z,99.99
2018-05-24T08:52:28.985Z,99.99
2018-05-24T08:53:28.996Z,98.28
2018-05-24T08:55:21.676Z,93.59
2018-05-24T08:56:21.544Z,92.72
2018-05-24T08:58:14.419Z,90.04
2018-05-24T08:59:14.288Z,90.52
2018-05-24T09:01:07.029Z,85.88
2018-05-24T09:02:06.942Z,83.29
2018-05-24T09:03:59.787Z,80.12
2018-05-24T09:04:59.688Z,76.92
2018-05-24T09:06:53.040Z,76.25
2018-05-24T09:07:52.352Z,76.35
2018-05-24T09:09:45.195Z,74.62
2018-05-24T09:10:45.080Z,71.08
2018-05-24T09:12:37.822Z,70.60
2018-05-24T09:13:37.737Z,66.96
2018-05-24T09:15:30.505Z,66.48
2018-05-24T09:16:30.377Z,66.67
2018-05-24T09:18:23.217Z,62.46
2018-05-24T09:19:23.127Z,63.42
2018-05-24T09:21:16.009Z,57.09
2018-05-24T09:22:15.897Z,59.58
2018-05-24T09:24:08.724Z,61.34
2018-05-24T09:25:08.618Z,60.57
2018-05-24T09:27:01.905Z,63.09
2018-05-24T09:28:01.790Z,65.78
2018-05-24T09:29:54.525Z,63.96
2018-05-24T09:30:54.429Z,67.16
2018-05-24T09:32:47.188Z,80.49
2018-05-24T09:33:47.077Z,82.31
2018-05-24T09:35:39.927Z,74.26
2018-05-24T09:36:39.824Z,73.77
2018-05-24T09:38:32.588Z,76.75
2018-05-24T09:39:32.480Z,81.64
2018-05-24T09:41:25.329Z,80.30
2018-05-24T09:42:25.226Z,81.54
2018-05-24T09:44:18.098Z,75.89
2018-05-24T09:45:18.015Z,77.61
2018-05-24T09:47:10.834Z,78.52
2018-05-24T09:48:10.726Z,77.94
2018-05-24T09:50:03.583Z,77.46
2018-05-24T09:51:03.470Z,85.33
2018-05-24T09:52:56.374Z,82.74
2018-05-24T09:53:56.131Z,83.22
2018-05-24T09:55:48.998Z,84.27
2018-05-24T09:56:48.865Z,93.97
2018-05-24T09:58:41.734Z,86.58
2018-05-24T09:59:41.634Z,86.81
2018-05-24T10:01:34.369Z,92.19
2018-05-24T10:02:34.267Z,94.11
2018-05-24T10:04:27.146Z,88.83
2018-05-24T10:05:27.013Z,92.96
2018-05-24T10:07:19.868Z,93.25
2018-05-24T10:08:19.782Z,98.05
2018-05-24T10:10:12.678Z,94.69
2018-05-24T10:11:12.515Z,97.28
2018-05-24T10:13:05.396Z,97.76
2018-05-24T10:14:05.274Z,99.99
2018-05-24T10:15:58.123Z,96.08
2018-05-24T10:16:58.022Z,99.99
2018-05-24T10:18:50.924Z,99.99
2018-05-24T10:19:50.774Z,98.91
2018-05-24T10:21:44.559Z,97.76
2018-05-24T10:22:44.446Z,97.76
2018-05-24T10:24:37.291Z,97.66
2018-05-24T10:25:37.185Z,98.24
2018-05-24T10:27:30.067Z,95.84
2018-05-24T10:28:29.967Z,96.89
2018-05-24T10:30:22.881Z,96.99
2018-05-24T10:31:22.704Z,94.16
2018-05-24T10:33:15.532Z,93.97
2018-05-24T10:34:15.428Z,91.90
2018-05-24T10:36:08.200Z,93.39
2018-05-24T10:37:08.083Z,91.28
2018-05-24T10:39:00.920Z,89.94
2018-05-24T10:40:00.828Z,88.31
2018-05-24T10:41:53.678Z,92.72
2018-05-24T10:42:53.573Z,92.82
2018-05-24T10:44:46.830Z,88.59
2018-05-24T10:45:46.755Z,88.69
2018-05-24T10:47:39.603Z,88.88
2018-05-24T10:48:39.489Z,89.17
2018-05-24T10:50:32.353Z,90.61
2018-05-24T10:51:32.242Z,90.61
2018-05-24T10:53:25.000Z,88.02
2018-05-24T10:54:24.907Z,88.98
2018-05-24T10:56:17.746Z,93.39
2018-05-24T10:57:17.646Z,89.75
2018-05-24T10:59:10.490Z,90.70
2018-05-24T11:00:10.389Z,91.61
2018-05-24T11:02:03.310Z,99.15
2018-05-24T11:03:03.105Z,98.53
2018-05-24T11:04:55.905Z,94.88
2018-05-24T11:05:56.015Z,94.49
2018-05-24T11:07:50.082Z,94.11
2018-05-24T11:08:49.962Z,99.99
2018-05-24T11:10:42.836Z,98.10
2018-05-24T11:11:42.734Z,93.77
2018-05-24T11:13:35.580Z,97.81
2018-05-24T11:14:35.463Z,99.99
2018-05-24T11:16:28.302Z,97.62
2018-05-24T11:17:28.221Z,99.99
2018-05-24T11:19:21.073Z,99.59
2018-05-24T11:20:20.982Z,97.67
2018-05-24T11:22:13.826Z,99.99
2018-05-24T11:23:13.757Z,99.99
2018-05-24T11:25:06.657Z,99.99
2018-05-24T11:26:06.477Z,99.99
2018-05-24T11:27:59.306Z,99.99
2018-05-24T11:28:59.216Z,99.99
2018-05-24T11:30:52.069Z,99.99
2018-05-24T11:31:52.019Z,99.99
2018-05-24T11:33:44.822Z,99.99
2018-05-24T11:34:44.719Z,99.99
2018-05-24T11:36:37.572Z,99.99
2018-05-24T11:37:37.461Z,99.99
2018-05-24T11:39:30.346Z,99.99
2018-05-24T11:40:30.222Z,99.99
2018-05-24T11:42:23.081Z,99.99
2018-05-24T11:43:23.039Z,99.99
2018-05-24T11:45:15.812Z,99.99
2018-05-24T11:46:15.730Z,99.99
2018-05-24T11:48:08.568Z,99.99
2018-05-24T11:49:08.458Z,99.99
2018-05-24T11:51:01.346Z,99.99
2018-05-24T11:52:01.286Z,99.99
2018-05-24T11:53:54.052Z,99.99
2018-05-24T11:54:53.963Z,99.99
2018-05-24T11:56:46.816Z,99.99
2018-05-24T11:57:46.706Z,99.99
2018-05-24T11:59:39.555Z,99.99
2018-05-24T12:00:39.499Z,99.99
2018-05-24T12:02:32.324Z,99.99
2018-05-24T12:03:32.212Z,99.99
2018-05-24T12:05:25.056Z,99.99
2018-05-24T12:06:24.950Z,99.99
2018-05-24T12:08:17.814Z,99.99
2018-05-24T12:09:17.710Z,99.99
2018-05-24T12:11:10.587Z,99.99
2018-05-24T12:12:10.473Z,99.99
2018-05-24T12:14:03.325Z,99.99
2018-05-24T12:15:03.288Z,99.99
2018-05-24T12:16:56.063Z,99.99
2018-05-24T12:17:55.953Z,99.99
2018-05-24T12:19:48.808Z,99.99
2018-05-24T12:20:48.708Z,99.99
2018-05-24T12:22:41.544Z,99.99
2018-05-24T12:23:41.545Z,99.99
2018-05-24T12:25:34.309Z,99.99
2018-05-24T12:26:34.231Z,99.99
2018-05-24T12:28:27.086Z,99.99
2018-05-24T12:29:26.957Z,99.99
2018-05-24T12:31:19.845Z,99.99
2018-05-24T12:32:19.708Z,99.99
2018-05-24T12:34:12.576Z,99.99
2018-05-24T12:35:12.479Z,99.99
2018-05-24T12:37:05.839Z,99.99
2018-05-24T12:38:05.307Z,99.99
2018-05-24T12:39:58.172Z,99.99
2018-05-24T12:40:58.067Z,99.99
2018-05-24T12:42:51.023Z,99.99
2018-05-24T12:43:50.829Z,99.99
2018-05-24T12:45:43.691Z,99.99
2018-05-24T12:46:43.573Z,99.99
2018-05-24T12:48:36.513Z,99.99
2018-05-24T12:49:36.424Z,99.99
2018-05-24T12:51:29.281Z,99.99
2018-05-24T12:52:29.191Z,99.99
2018-05-24T12:54:22.004Z,99.99
2018-05-24T12:55:21.924Z,99.99
2018-05-24T12:57:14.775Z,99.99
2018-05-24T12:58:14.665Z,99.99
2018-05-24T13:00:07.494Z,99.99
2018-05-24T13:01:07.429Z,99.99
2018-05-24T13:03:00.263Z,99.99
2018-05-24T13:04:00.178Z,99.99
2018-05-24T13:05:53.534Z,99.99
2018-05-24T13:06:53.437Z,99.99
2018-05-24T13:08:46.292Z,99.99
2018-05-24T13:09:46.304Z,99.99
2018-05-24T13:11:39.021Z,99.99
2018-05-24T13:12:38.938Z,99.99
2018-05-24T13:14:31.781Z,99.99
2018-05-24T13:15:31.667Z,99.99
2018-05-24T13:17:24.956Z,99.99
2018-05-24T13:18:24.844Z,99.99
2018-05-24T13:20:17.684Z,99.99
2018-05-24T13:21:17.591Z,99.99
2018-05-24T13:23:10.431Z,99.99
2018-05-24T13:24:10.342Z,99.99
2018-05-24T13:26:03.704Z,99.99
2018-05-24T13:27:03.600Z,99.99
2018-05-24T13:28:56.442Z,99.99
2018-05-24T13:29:56.330Z,99.99
2018-05-24T13:31:49.187Z,99.99
2018-05-24T13:32:49.101Z,99.99
2018-05-24T13:34:41.951Z,99.99
2018-05-24T13:35:41.844Z,99.99
2018-05-24T13:37:34.713Z,99.99
2018-05-24T13:38:34.592Z,99.99
2018-05-24T13:40:27.466Z,99.99
2018-05-24T13:41:27.355Z,99.99
2018-05-24T13:43:20.207Z,99.99
2018-05-24T13:44:20.088Z,99.99
2018-05-24T13:46:12.942Z,99.99
2018-05-24T13:47:12.883Z,99.99
2018-05-24T13:49:05.796Z,99.99
2018-05-24T13:50:05.703Z,99.99
2018-05-24T13:51:59.998Z,99.99
2018-05-24T13:52:59.877Z,99.99
2018-05-24T13:54:52.706Z,99.99
2018-05-24T13:55:52.635Z,99.99
2018-05-24T13:57:45.480Z,99.99
2018-05-24T13:58:45.377Z,99.99
2018-05-24T14:00:38.221Z,99.21
2018-05-24T14:01:38.162Z,97.04
2018-05-24T14:03:30.991Z,97.33
2018-05-24T14:04:30.874Z,95.59
2018-05-24T14:06:23.708Z,93.95
2018-05-24T14:07:23.626Z,92.88
2018-05-24T14:09:16.482Z,93.32
2018-05-24T14:10:16.370Z,94.33
2018-05-24T14:12:12.191Z,93.95
2018-05-24T14:13:12.107Z,91.05
2018-05-24T14:15:04.968Z,92.79
2018-05-24T14:16:04.844Z,95.15
2018-05-24T14:17:57.692Z,91.91
2018-05-24T14:18:57.615Z,90.75
2018-05-24T14:20:50.449Z,90.31
2018-05-24T14:21:50.346Z,87.02
2018-05-24T14:23:43.196Z,85.03
2018-05-24T14:24:43.093Z,81.30
2018-05-24T14:26:35.920Z,81.98
2018-05-24T14:27:35.843Z,83.15
2018-05-24T14:29:28.701Z,83.11
2018-05-24T14:30:28.618Z,80.79
2018-05-24T14:32:21.424Z,82.53
2018-05-24T14:33:21.340Z,81.65
2018-05-24T14:35:14.190Z,86.16
2018-05-24T14:36:14.090Z,82.68
2018-05-24T14:38:07.433Z,82.64
2018-05-24T14:39:07.371Z,80.99
2018-05-24T14:41:00.208Z,82.50
2018-05-24T14:42:00.097Z,83.37
2018-05-24T14:43:52.972Z,85.21
2018-05-24T14:44:52.850Z,85.98
2018-05-24T14:46:45.697Z,86.94
2018-05-24T14:47:45.788Z,86.94
2018-05-24T14:49:38.536Z,88.10
2018-05-24T14:50:38.441Z,86.27
2018-05-24T14:52:31.404Z,86.03
2018-05-24T14:53:31.296Z,83.81
2018-05-24T14:55:24.188Z,88.73
2018-05-24T14:56:24.053Z,86.71
2018-05-24T14:58:17.027Z,90.77
2018-05-24T14:59:16.940Z,94.14
2018-05-24T15:01:09.758Z,95.83
2018-05-24T15:02:10.019Z,94.00
2018-05-24T15:04:02.509Z,94.77
2018-05-24T15:05:02.409Z,95.54
2018-05-24T15:06:55.254Z,99.99
2018-05-24T15:07:55.156Z,99.98
2018-05-24T15:09:47.992Z,99.99
2018-05-24T15:10:47.917Z,99.99
2018-05-24T15:12:41.172Z,99.99
2018-05-24T15:13:41.076Z,99.99
2018-05-24T15:15:33.922Z,99.99
2018-05-24T15:16:33.812Z,99.99
2018-05-24T15:18:26.708Z,99.99
2018-05-24T15:19:26.585Z,99.99
2018-05-24T15:21:19.413Z,99.99
2018-05-24T15:22:19.330Z,99.99
2018-05-24T15:24:12.177Z,99.99
2018-05-24T15:25:12.131Z,99.99
2018-05-24T15:27:05.733Z,99.99
2018-05-24T15:28:05.635Z,99.99
2018-05-24T15:29:58.477Z,99.99
2018-05-24T15:30:58.397Z,99.99
2018-05-24T15:32:51.245Z,99.99
2018-05-24T15:33:51.144Z,98.83
2018-05-24T15:35:43.980Z,94.87
2018-05-24T15:36:43.888Z,96.61
2018-05-24T15:38:36.741Z,94.10
2018-05-24T15:39:36.619Z,94.00
2018-05-24T15:41:29.484Z,94.77
2018-05-24T15:42:29.388Z,93.71
2018-05-24T15:44:22.228Z,91.49
2018-05-24T15:45:22.135Z,92.07
2018-05-24T15:47:14.976Z,92.07
2018-05-24T15:48:14.883Z,91.39
2018-05-24T15:50:07.756Z,90.62
2018-05-24T15:51:07.623Z,91.97
2018-05-24T15:53:00.475Z,91.59
2018-05-24T15:54:00.370Z,90.72
2018-05-24T15:55:53.223Z,90.53
2018-05-24T15:56:53.152Z,89.42
2018-05-24T15:58:45.972Z,89.85
2018-05-24T15:59:45.876Z,88.98
2018-05-24T16:01:39.734Z,90.72
2018-05-24T16:02:39.566Z,90.72
2018-05-24T16:04:32.394Z,90.38
2018-05-24T16:05:32.286Z,91.83
2018-05-24T16:07:25.144Z,91.74
2018-05-24T16:08:25.049Z,93.08
2018-05-24T16:10:17.891Z,93.47
2018-05-24T16:11:17.787Z,93.66
2018-05-24T16:13:10.624Z,97.47
2018-05-24T16:14:10.542Z,99.99
2018-05-24T16:16:03.418Z,99.99
2018-05-24T16:17:03.310Z,99.99
2018-05-24T16:18:59.095Z,99.99
2018-05-24T16:19:59.135Z,99.99
2018-05-24T16:21:52.419Z,99.99
2018-05-24T16:22:52.274Z,99.99
2018-05-24T16:24:45.125Z,99.99
2018-05-24T16:25:45.028Z,99.99
2018-05-24T16:27:37.890Z,99.99
2018-05-24T16:28:37.800Z,99.99
2018-05-24T16:30:31.532Z,99.99
2018-05-24T16:31:31.471Z,99.99
2018-05-24T16:33:24.291Z,99.99
2018-05-24T16:34:24.197Z,99.99
2018-05-24T16:36:17.174Z,99.99
2018-05-24T16:37:16.945Z,99.99
2018-05-24T16:39:09.777Z,99.99
2018-05-24T16:40:09.684Z,99.99
2018-05-24T16:42:02.544Z,99.99
2018-05-24T16:43:02.443Z,99.99
2018-05-24T16:44:55.291Z,99.99
2018-05-24T16:45:55.198Z,99.99
2018-05-24T16:47:48.040Z,99.99
2018-05-24T16:48:47.954Z,99.99
2018-05-24T16:50:40.788Z,99.99
2018-05-24T16:51:40.688Z,99.99
2018-05-24T16:53:33.541Z,99.99
2018-05-24T16:54:33.489Z,99.99
2018-05-24T16:56:26.270Z,99.99
2018-05-24T16:57:26.203Z,99.99
2018-05-24T16:59:19.032Z,99.99
2018-05-24T17:00:18.935Z,99.99
2018-05-24T17:02:11.777Z,99.99
2018-05-24T17:03:11.682Z,99.99
2018-05-24T17:05:04.542Z,99.99
2018-05-24T17:06:04.448Z,99.99
2018-05-24T17:07:57.281Z,99.99
2018-05-24T17:08:57.184Z,99.99
2018-05-24T17:10:50.044Z,99.99
2018-05-24T17:11:49.944Z,99.99
2018-05-24T17:13:42.805Z,99.99
2018-05-24T17:14:42.757Z,99.99
2018-05-24T17:16:36.111Z,99.99
2018-05-24T17:17:35.951Z,99.99
2018-05-24T17:19:28.811Z,99.99
2018-05-24T17:20:28.705Z,99.99
2018-05-24T17:22:21.547Z,99.99
2018-05-24T17:23:21.494Z,99.99
2018-05-24T17:25:14.316Z,99.99
2018-05-24T17:26:14.211Z,99.99
2018-05-24T17:28:07.033Z,99.99
2018-05-24T17:29:06.954Z,99.99
2018-05-24T17:30:59.810Z,99.99
2018-05-24T17:31:59.725Z,99.99
2018-05-24T17:33:52.523Z,99.99
2018-05-24T17:34:52.498Z,99.99
2018-05-24T17:36:45.355Z,99.99
2018-05-24T17:37:45.188Z,99.99
2018-05-24T17:39:38.098Z,99.99
2018-05-24T17:40:37.943Z,99.99
2018-05-24T17:42:30.792Z,99.99
2018-05-24T17:43:30.723Z,99.99
2018-05-24T17:45:23.669Z,99.99
2018-05-24T17:46:23.450Z,99.99
2018-05-24T17:48:16.313Z,99.99
2018-05-24T17:49:16.184Z,99.99
2018-05-24T17:51:09.021Z,99.99
2018-05-24T17:52:08.938Z,99.99
2018-05-24T17:54:01.804Z,99.99
2018-05-24T17:55:01.702Z,99.99
2018-05-24T17:56:54.941Z,99.99
2018-05-24T17:57:54.865Z,99.99
2018-05-24T17:59:47.711Z,99.99
2018-05-24T18:00:47.609Z,99.99
2018-05-24T18:02:40.425Z,99.99
2018-05-24T18:03:40.343Z,99.99
2018-05-24T18:05:33.309Z,99.99
2018-05-24T18:06:33.089Z,99.99
2018-05-24T18:08:25.927Z,99.99
2018-05-24T18:09:25.883Z,99.99
2018-05-24T18:11:18.763Z,99.99
2018-05-24T18:12:18.591Z,99.99
2018-05-24T18:14:11.464Z,99.99
2018-05-24T18:15:11.401Z,99.99
2018-05-24T18:17:04.746Z,99.99
2018-05-24T18:18:04.520Z,99.99
2018-05-24T18:19:57.334Z,99.99
2018-05-24T18:20:57.255Z,99.99
2018-05-24T18:22:50.250Z,99.99
2018-05-24T18:23:50.000Z,99.99
2018-05-24T18:25:42.847Z,99.99
2018-05-24T18:26:42.751Z,99.99
2018-05-24T18:28:35.609Z,99.99
2018-05-24T18:29:35.502Z,99.99
2018-05-24T18:31:28.341Z,99.99
2018-05-24T18:32:28.249Z,99.99